AGGH/HIR METAR and TAF weather

Enter ICAO airport designator
Station Type Date Time Source
AGGH METAR 2018/10/16 21:00 UTC NOAA

AGGH 162100Z 16003KT 9999 FEW017 FEW018CB SCT100 26/23 Q1011


Station Type Date Time Source
AGGH Decoded METAR 2018/10/16 21:00 UTC NOAA

Honiara / Henderson, Solomon Islands (AGGH) 09-25S 160-03E 9M
Oct 16, 2018 - 05:00 PM EDT / 2018.10.16 2100 UTC
Wind: from the SSE (160 degrees) at 3 MPH (3 KT):0
Visibility: greater than 7 mile(s):0
Sky conditions: partly cloudy
Weather: Cumulonimbus clouds observed
Temperature: 78 F (26 C)
Dew Point: 73 F (23 C)
Relative Humidity: 83%
Pressure (altimeter): 29.85 in. Hg (1011 hPa)
ob: AGGH 162100Z 16003KT 9999 FEW017 FEW018CB SCT100 26/23 Q1011
cycle: 21

Station Type Date Time Source
AGGH TAF 2018/10/16 18:39 UTC NOAA

TAF AGGH 161730Z 1618/1718 VRB03KT 9999 FEW017 SCT028
FM162200 07015KT 9999 SCT018 T 24 26 30 31 Q 1007 1009 1009 1007


Example: see airport list